EDHI

Hamburg-Finkenwerder Airport

Hamburg, Germany
METAR EDHI 230250Z AUTO 07007KT 9999 // NCD 13/08 Q1019
Observed Flight Rules
May-23 @ 02:50 UTC (36 minutes ago) Visual Flight Rules
Wind Visibility Clouds
70° at 7 knots 10,000+ meters
  • Clear skies
Temperatures Readings
Current 13°C / 55°F
Dewpoint 8°C / 46°F
Humidity 72%
Altimeter 30.09" Hg
Pressure 1019 hPa
Elevation 13
METAR EDHI 230250Z AUTO 07007KT 9999 // NCD 13/08 Q1019
Observed Flight Rules
May-23 @ 02:50 UTC
(36 minutes ago)
VFR
Wind Visibility
70° at 7 knots 10,000+ meters
Clouds
  • Clear skies
Temperature Dewpoint
13°C / 55°F 8°C / 46°F
Humidity Altimeter Pressure
72% 30.09" Hg 1019 hPa